sensor_id;sensor_type;location;lat;lon;timestamp;pressure;altitude;pressure_sealevel;temperature;humidity
55858;BME280;41779;52.360;31.026;2022-07-30T00:00:45;1029.6;;;19.6;50.7
55858;BME280;41779;52.360;31.026;2022-07-30T00:05:45;1029.6;;;19.6;50.7
55858;BME280;41779;52.360;31.026;2022-07-30T00:10:45;1029.6;;;19.6;50.7
55858;BME280;41779;52.360;31.026;2022-07-30T00:15:45;1029.6;;;19.6;50.7
55858;BME280;41779;52.360;31.026;2022-07-30T00:20:45;1029.6;;;19.6;50.7
55858;BME280;41779;52.360;31.026;2022-07-30T00:25:45;1029.6;;;19.6;50.7
55858;BME280;41779;52.360;31.026;2022-07-30T00:30:45;1029.6;;;19.6;50.7
55858;BME280;41779;52.360;31.026;2022-07-30T00:35:45;1029.6;;;19.6;50.7
55858;BME280;41779;52.360;31.026;2022-07-30T00:40:46;1029.6;;;19.6;50.7
55858;BME280;41779;52.360;31.026;2022-07-30T00:45:45;1029.6;;;19.6;50.7
55858;BME280;41779;52.360;31.026;2022-07-30T00:50:45;1029.6;;;19.6;50.7
55858;BME280;41779;52.360;31.026;2022-07-30T00:55:45;1029.6;;;19.6;50.7
55858;BME280;41779;52.360;31.026;2022-07-30T01:00:45;1029.6;;;19.6;50.7
55858;BME280;41779;52.360;31.026;2022-07-30T01:05:46;1029.6;;;19.6;50.7
55858;BME280;41779;52.360;31.026;2022-07-30T01:10:45;1029.6;;;19.6;50.7
55858;BME280;41779;52.360;31.026;2022-07-30T01:15:45;1029.6;;;19.6;50.7
55858;BME280;41779;52.360;31.026;2022-07-30T01:20:50;1029.6;;;19.6;50.7
55858;BME280;41779;52.360;31.026;2022-07-30T01:25:50;1029.6;;;19.6;50.7
55858;BME280;41779;52.360;31.026;2022-07-30T01:30:45;1029.6;;;19.6;50.7
55858;BME280;41779;52.360;31.026;2022-07-30T01:35:46;1029.6;;;19.6;50.7
55858;BME280;41779;52.360;31.026;2022-07-30T01:40:46;1029.6;;;19.6;50.7
55858;BME280;41779;52.360;31.026;2022-07-30T01:45:46;1029.6;;;19.6;50.7
55858;BME280;41779;52.360;31.026;2022-07-30T01:50:46;1029.6;;;19.6;50.7
55858;BME280;41779;52.360;31.026;2022-07-30T01:55:45;1029.6;;;19.6;50.7
55858;BME280;41779;52.360;31.026;2022-07-30T02:00:46;1029.6;;;19.6;50.7
55858;BME280;41779;52.360;31.026;2022-07-30T02:05:47;1029.6;;;19.6;50.7
55858;BME280;41779;52.360;31.026;2022-07-30T02:10:48;1029.6;;;19.6;50.7
55858;BME280;41779;52.360;31.026;2022-07-30T02:15:48;1029.6;;;19.6;50.7
55858;BME280;41779;52.360;31.026;2022-07-30T02:20:47;1029.6;;;19.6;50.7
55858;BME280;41779;52.360;31.026;2022-07-30T02:25:48;1029.6;;;19.6;50.7
55858;BME280;41779;52.360;31.026;2022-07-30T02:30:47;1029.6;;;19.6;50.7
55858;BME280;41779;52.360;31.026;2022-07-30T02:35:45;1029.6;;;19.6;50.7
55858;BME280;41779;52.360;31.026;2022-07-30T02:40:45;1029.6;;;19.6;50.7
55858;BME280;41779;52.360;31.026;2022-07-30T02:45:46;1029.6;;;19.6;50.7
55858;BME280;41779;52.360;31.026;2022-07-30T02:50:46;1029.6;;;19.6;50.7
55858;BME280;41779;52.360;31.026;2022-07-30T02:55:45;1029.6;;;19.6;50.7
55858;BME280;41779;52.360;31.026;2022-07-30T03:00:46;1029.6;;;19.6;50.7
55858;BME280;41779;52.360;31.026;2022-07-30T03:05:45;1029.6;;;19.6;50.7
55858;BME280;41779;52.360;31.026;2022-07-30T03:10:45;1029.6;;;19.6;50.7
55858;BME280;41779;52.360;31.026;2022-07-30T03:15:46;1029.6;;;19.6;50.7
55858;BME280;41779;52.360;31.026;2022-07-30T03:20:48;1029.6;;;19.6;50.7
55858;BME280;41779;52.360;31.026;2022-07-30T03:25:48;1029.6;;;19.6;50.7
55858;BME280;41779;52.360;31.026;2022-07-30T03:30:45;1029.6;;;19.6;50.7
55858;BME280;41779;52.360;31.026;2022-07-30T03:35:45;1029.6;;;19.6;50.7
55858;BME280;41779;52.360;31.026;2022-07-30T03:40:45;1029.6;;;19.6;50.7
55858;BME280;41779;52.360;31.026;2022-07-30T03:45:45;1029.6;;;19.6;50.7
55858;BME280;41779;52.360;31.026;2022-07-30T03:50:45;1029.6;;;19.6;50.7
55858;BME280;41779;52.360;31.026;2022-07-30T03:55:45;1029.6;;;19.6;50.7
55858;BME280;41779;52.360;31.026;2022-07-30T04:00:46;1029.6;;;19.6;50.7
55858;BME280;41779;52.360;31.026;2022-07-30T04:05:45;1029.6;;;19.6;50.7
55858;BME280;41779;52.360;31.026;2022-07-30T04:10:47;1029.6;;;19.6;50.7
55858;BME280;41779;52.360;31.026;2022-07-30T04:16:03;1029.6;;;19.6;50.7
55858;BME280;41779;52.360;31.026;2022-07-30T04:20:46;1029.6;;;19.6;50.7
55858;BME280;41779;52.360;31.026;2022-07-30T04:25:45;1029.6;;;19.6;50.7
55858;BME280;41779;52.360;31.026;2022-07-30T04:30:45;1029.6;;;19.6;50.7
55858;BME280;41779;52.360;31.026;2022-07-30T04:35:45;1029.6;;;19.6;50.7
55858;BME280;41779;52.360;31.026;2022-07-30T04:40:45;1029.6;;;19.6;50.7
55858;BME280;41779;52.360;31.026;2022-07-30T04:45:45;1029.6;;;19.6;50.7
55858;BME280;41779;52.360;31.026;2022-07-30T04:50:46;1029.6;;;19.6;50.7
55858;BME280;41779;52.360;31.026;2022-07-30T04:55:46;1029.6;;;19.6;50.7
55858;BME280;41779;52.360;31.026;2022-07-30T05:00:45;1029.6;;;19.6;50.7
55858;BME280;41779;52.360;31.026;2022-07-30T05:05:46;1029.6;;;19.6;50.7
55858;BME280;41779;52.360;31.026;2022-07-30T05:10:45;1029.6;;;19.6;50.7
55858;BME280;41779;52.360;31.026;2022-07-30T05:15:45;1029.6;;;19.6;50.7
55858;BME280;41779;52.360;31.026;2022-07-30T05:20:45;1029.6;;;19.6;50.7
55858;BME280;41779;52.360;31.026;2022-07-30T05:25:45;1029.6;;;19.6;50.7
55858;BME280;41779;52.360;31.026;2022-07-30T05:30:45;1029.6;;;19.6;50.7
55858;BME280;41779;52.360;31.026;2022-07-30T05:35:46;1029.6;;;19.6;50.7
55858;BME280;41779;52.360;31.026;2022-07-30T05:40:45;1029.6;;;19.6;50.7
55858;BME280;41779;52.360;31.026;2022-07-30T05:45:45;1029.6;;;19.6;50.7
55858;BME280;41779;52.360;31.026;2022-07-30T05:50:45;1029.6;;;19.6;50.7
55858;BME280;41779;52.360;31.026;2022-07-30T05:55:45;1029.6;;;19.6;50.7
55858;BME280;41779;52.360;31.026;2022-07-30T06:00:45;1029.6;;;19.6;50.7
55858;BME280;41779;52.360;31.026;2022-07-30T06:05:45;1029.6;;;19.6;50.7
55858;BME280;41779;52.360;31.026;2022-07-30T06:10:45;1029.6;;;19.6;50.7
55858;BME280;41779;52.360;31.026;2022-07-30T06:15:45;1029.6;;;19.6;50.7
55858;BME280;41779;52.360;31.026;2022-07-30T06:20:45;1029.6;;;19.6;50.7
55858;BME280;41779;52.360;31.026;2022-07-30T06:25:46;1029.6;;;19.6;50.7
55858;BME280;41779;52.360;31.026;2022-07-30T06:30:45;1029.6;;;19.6;50.7
55858;BME280;41779;52.360;31.026;2022-07-30T06:35:45;1029.6;;;19.6;50.7
55858;BME280;41779;52.360;31.026;2022-07-30T06:40:45;1029.6;;;19.6;50.7
55858;BME280;41779;52.360;31.026;2022-07-30T06:45:45;1029.6;;;19.6;50.7
55858;BME280;41779;52.360;31.026;2022-07-30T06:50:45;1029.6;;;19.6;50.7
55858;BME280;41779;52.360;31.026;2022-07-30T06:55:45;1029.6;;;19.6;50.7
55858;BME280;41779;52.360;31.026;2022-07-30T07:00:45;1029.6;;;19.6;50.7
55858;BME280;41779;52.360;31.026;2022-07-30T07:05:45;1029.6;;;19.6;50.7
55858;BME280;41779;52.360;31.026;2022-07-30T07:10:45;1029.6;;;19.6;50.7
55858;BME280;41779;52.360;31.026;2022-07-30T07:15:45;1029.6;;;19.6;50.7
55858;BME280;41779;52.360;31.026;2022-07-30T07:20:45;1029.6;;;19.6;50.7
55858;BME280;41779;52.360;31.026;2022-07-30T07:25:45;1029.6;;;19.6;50.7
55858;BME280;41779;52.360;31.026;2022-07-30T07:30:45;1029.6;;;19.6;50.7
55858;BME280;41779;52.360;31.026;2022-07-30T07:35:46;1029.6;;;19.6;50.7
55858;BME280;41779;52.360;31.026;2022-07-30T07:40:45;1029.6;;;19.6;50.7
55858;BME280;41779;52.360;31.026;2022-07-30T07:45:46;1029.6;;;19.6;50.7
55858;BME280;41779;52.360;31.026;2022-07-30T07:50:46;1029.6;;;19.6;50.7
55858;BME280;41779;52.360;31.026;2022-07-30T07:55:45;1029.6;;;19.6;50.7
55858;BME280;41779;52.360;31.026;2022-07-30T08:00:45;1029.6;;;19.6;50.7
55858;BME280;41779;52.360;31.026;2022-07-30T08:05:45;1029.6;;;19.6;50.7
55858;BME280;41779;52.360;31.026;2022-07-30T08:10:46;1029.6;;;19.6;50.7
55858;BME280;41779;52.360;31.026;2022-07-30T08:15:45;1029.6;;;19.6;50.7
55858;BME280;41779;52.360;31.026;2022-07-30T08:20:45;1029.6;;;19.6;50.7
55858;BME280;41779;52.360;31.026;2022-07-30T08:25:45;1029.6;;;19.6;50.7
55858;BME280;41779;52.360;31.026;2022-07-30T08:30:45;1029.6;;;19.6;50.7
55858;BME280;41779;52.360;31.026;2022-07-30T08:35:45;1029.6;;;19.6;50.7
55858;BME280;41779;52.360;31.026;2022-07-30T08:40:45;1029.6;;;19.6;50.7
55858;BME280;41779;52.360;31.026;2022-07-30T08:45:45;1029.6;;;19.6;50.7
55858;BME280;41779;52.360;31.026;2022-07-30T08:50:45;1029.6;;;19.6;50.7
55858;BME280;41779;52.360;31.026;2022-07-30T08:55:45;1029.6;;;19.6;50.7
55858;BME280;41779;52.360;31.026;2022-07-30T09:00:45;1029.6;;;19.6;50.7
55858;BME280;41779;52.360;31.026;2022-07-30T09:05:45;1029.6;;;19.6;50.7
55858;BME280;41779;52.360;31.026;2022-07-30T09:10:46;1029.6;;;19.6;50.7
55858;BME280;41779;52.360;31.026;2022-07-30T09:15:45;1029.6;;;19.6;50.7
55858;BME280;41779;52.360;31.026;2022-07-30T09:20:45;1029.6;;;19.6;50.7
55858;BME280;41779;52.360;31.026;2022-07-30T09:25:47;1029.6;;;19.6;50.7
55858;BME280;41779;52.360;31.026;2022-07-30T09:30:48;1029.6;;;19.6;50.7
55858;BME280;41779;52.360;31.026;2022-07-30T09:35:45;1029.6;;;19.6;50.7
55858;BME280;41779;52.360;31.026;2022-07-30T09:40:49;1029.6;;;19.6;50.7
55858;BME280;41779;52.360;31.026;2022-07-30T09:45:53;1029.6;;;19.6;50.7
55858;BME280;41779;52.360;31.026;2022-07-30T09:50:47;1029.6;;;19.6;50.7
55858;BME280;41779;52.360;31.026;2022-07-30T09:55:45;1029.6;;;19.6;50.7
55858;BME280;41779;52.360;31.026;2022-07-30T10:00:45;1029.6;;;19.6;50.7
55858;BME280;41779;52.360;31.026;2022-07-30T10:05:49;1029.6;;;19.6;50.7
55858;BME280;41779;52.360;31.026;2022-07-30T10:10:46;1029.6;;;19.6;50.7
55858;BME280;41779;52.360;31.026;2022-07-30T10:15:45;1029.6;;;19.6;50.7
55858;BME280;41779;52.360;31.026;2022-07-30T10:20:45;1029.6;;;19.6;50.7
55858;BME280;41779;52.360;31.026;2022-07-30T10:25:45;1029.6;;;19.6;50.7
55858;BME280;41779;52.360;31.026;2022-07-30T10:30:47;1029.6;;;19.6;50.7
55858;BME280;41779;52.360;31.026;2022-07-30T10:35:45;1029.6;;;19.6;50.7
55858;BME280;41779;52.360;31.026;2022-07-30T10:40:48;1029.6;;;19.6;50.7
55858;BME280;41779;52.360;31.026;2022-07-30T10:45:46;1029.6;;;19.6;50.7
55858;BME280;41779;52.360;31.026;2022-07-30T10:50:54;1029.6;;;19.6;50.7
55858;BME280;41779;52.360;31.026;2022-07-30T10:55:45;1029.6;;;19.6;50.7
55858;BME280;41779;52.360;31.026;2022-07-30T11:00:57;1029.6;;;19.6;50.7
55858;BME280;41779;52.360;31.026;2022-07-30T11:05:47;1029.6;;;19.6;50.7
55858;BME280;41779;52.360;31.026;2022-07-30T11:10:45;1029.6;;;19.6;50.7
55858;BME280;41779;52.360;31.026;2022-07-30T11:15:54;1029.6;;;19.6;50.7
55858;BME280;41779;52.360;31.026;2022-07-30T11:21:18;1029.6;;;19.6;50.7
55858;BME280;41779;52.360;31.026;2022-07-30T11:25:46;1029.6;;;19.6;50.7
55858;BME280;41779;52.360;31.026;2022-07-30T11:30:45;1029.6;;;19.6;50.7
55858;BME280;41779;52.360;31.026;2022-07-30T11:36:04;1029.6;;;19.6;50.7
55858;BME280;41779;52.360;31.026;2022-07-30T11:45:46;1029.6;;;19.6;50.7
55858;BME280;41779;52.360;31.026;2022-07-30T11:50:46;1029.6;;;19.6;50.7
55858;BME280;41779;52.360;31.026;2022-07-30T11:55:49;1029.6;;;19.6;50.7
55858;BME280;41779;52.360;31.026;2022-07-30T12:00:45;1029.6;;;19.6;50.7
55858;BME280;41779;52.360;31.026;2022-07-30T12:05:46;1029.6;;;19.6;50.7
55858;BME280;41779;52.360;31.026;2022-07-30T12:10:54;1029.6;;;19.6;50.7
55858;BME280;41779;52.360;31.026;2022-07-30T12:15:46;1029.6;;;19.6;50.7
55858;BME280;41779;52.360;31.026;2022-07-30T12:20:51;1029.6;;;19.6;50.7
55858;BME280;41779;52.360;31.026;2022-07-30T12:25:45;1029.6;;;19.6;50.7
55858;BME280;41779;52.360;31.026;2022-07-30T12:30:45;1029.6;;;19.6;50.7
55858;BME280;41779;52.360;31.026;2022-07-30T12:35:46;1029.6;;;19.6;50.7
55858;BME280;41779;52.360;31.026;2022-07-30T12:41:02;1029.6;;;19.6;50.7
55858;BME280;41779;52.360;31.026;2022-07-30T12:45:45;1029.6;;;19.6;50.7
55858;BME280;41779;52.360;31.026;2022-07-30T12:50:45;1029.6;;;19.6;50.7
55858;BME280;41779;52.360;31.026;2022-07-30T12:55:45;1029.6;;;19.6;50.7
55858;BME280;41779;52.360;31.026;2022-07-30T13:00:46;1029.6;;;19.6;50.7
55858;BME280;41779;52.360;31.026;2022-07-30T13:05:46;1029.6;;;19.6;50.7
55858;BME280;41779;52.360;31.026;2022-07-30T13:10:53;1029.6;;;19.6;50.7
55858;BME280;41779;52.360;31.026;2022-07-30T13:15:55;1029.6;;;19.6;50.7
55858;BME280;41779;52.360;31.026;2022-07-30T13:20:47;1029.6;;;19.6;50.7
55858;BME280;41779;52.360;31.026;2022-07-30T13:25:45;1029.6;;;19.6;50.7
55858;BME280;41779;52.360;31.026;2022-07-30T13:30:45;1029.6;;;19.6;50.7
55858;BME280;41779;52.360;31.026;2022-07-30T13:35:45;1029.6;;;19.6;50.7
55858;BME280;41779;52.360;31.026;2022-07-30T13:40:45;1029.6;;;19.6;50.7
55858;BME280;41779;52.360;31.026;2022-07-30T13:45:46;1029.6;;;19.6;50.7
55858;BME280;41779;52.360;31.026;2022-07-30T13:50:46;1029.6;;;19.6;50.7
55858;BME280;41779;52.360;31.026;2022-07-30T13:55:45;1029.6;;;19.6;50.7
55858;BME280;41779;52.360;31.026;2022-07-30T14:00:45;1029.6;;;19.6;50.7
55858;BME280;41779;52.360;31.026;2022-07-30T14:05:45;1029.6;;;19.6;50.7
55858;BME280;41779;52.360;31.026;2022-07-30T14:10:45;1029.6;;;19.6;50.7
55858;BME280;41779;52.360;31.026;2022-07-30T14:15:45;1029.6;;;19.6;50.7
55858;BME280;41779;52.360;31.026;2022-07-30T14:20:45;1029.6;;;19.6;50.7
55858;BME280;41779;52.360;31.026;2022-07-30T14:25:45;1029.6;;;19.6;50.7
55858;BME280;41779;52.360;31.026;2022-07-30T14:30:45;1029.6;;;19.6;50.7
55858;BME280;41779;52.360;31.026;2022-07-30T14:35:45;1029.6;;;19.6;50.7
55858;BME280;41779;52.360;31.026;2022-07-30T14:40:45;1029.6;;;19.6;50.7
55858;BME280;41779;52.360;31.026;2022-07-30T14:45:45;1029.6;;;19.6;50.7
55858;BME280;41779;52.360;31.026;2022-07-30T14:50:45;1029.6;;;19.6;50.7
55858;BME280;41779;52.360;31.026;2022-07-30T14:55:45;1029.6;;;19.6;50.7
55858;BME280;41779;52.360;31.026;2022-07-30T15:00:45;1029.6;;;19.6;50.7
55858;BME280;41779;52.360;31.026;2022-07-30T15:05:45;1029.6;;;19.6;50.7
55858;BME280;41779;52.360;31.026;2022-07-30T15:10:45;1029.6;;;19.6;50.7
55858;BME280;41779;52.360;31.026;2022-07-30T15:15:46;1029.6;;;19.6;50.7
55858;BME280;41779;52.360;31.026;2022-07-30T15:20:45;1029.6;;;19.6;50.7
55858;BME280;41779;52.360;31.026;2022-07-30T15:25:45;1029.6;;;19.6;50.7
55858;BME280;41779;52.360;31.026;2022-07-30T15:30:45;1029.6;;;19.6;50.7
55858;BME280;41779;52.360;31.026;2022-07-30T15:35:45;1029.6;;;19.6;50.7
55858;BME280;41779;52.360;31.026;2022-07-30T15:40:45;1029.6;;;19.6;50.7
55858;BME280;41779;52.360;31.026;2022-07-30T15:45:45;1029.6;;;19.6;50.7
55858;BME280;41779;52.360;31.026;2022-07-30T15:50:45;1026.9;;;25.1;45.4
55858;BME280;41779;52.360;31.026;2022-07-30T15:55:45;1026.9;;;25.1;45.4
55858;BME280;41779;52.360;31.026;2022-07-30T16:00:45;1026.8;;;25.8;44.1
55858;BME280;41779;52.360;31.026;2022-07-30T16:05:45;1026.8;;;26;43.9
55858;BME280;41779;52.360;31.026;2022-07-30T16:10:46;1026.8;;;26.2;43.4
55858;BME280;41779;52.360;31.026;2022-07-30T16:15:45;1026.9;;;26.3;43
55858;BME280;41779;52.360;31.026;2022-07-30T16:20:45;1026.9;;;26.3;42.1
55858;BME280;41779;52.360;31.026;2022-07-30T16:25:45;1026.8;;;26.3;41.7
55858;BME280;41779;52.360;31.026;2022-07-30T16:30:45;1026.8;;;26.3;41.5
55858;BME280;41779;52.360;31.026;2022-07-30T16:35:46;1026.8;;;26.2;41.7
55858;BME280;41779;52.360;31.026;2022-07-30T16:40:45;1026.8;;;26.2;41.8
55858;BME280;41779;52.360;31.026;2022-07-30T16:45:46;1026.8;;;26.3;42
55858;BME280;41779;52.360;31.026;2022-07-30T16:50:45;1026.8;;;26.3;41.9
55858;BME280;41779;52.360;31.026;2022-07-30T16:55:46;1026.8;;;26.3;41.7
55858;BME280;41779;52.360;31.026;2022-07-30T17:00:45;1026.8;;;26.3;41.7
55858;BME280;41779;52.360;31.026;2022-07-30T17:05:46;1026.7;;;26.3;41.8
55858;BME280;41779;52.360;31.026;2022-07-30T17:10:45;1026.8;;;26.3;42
55858;BME280;41779;52.360;31.026;2022-07-30T17:15:46;1026.8;;;26.3;42
55858;BME280;41779;52.360;31.026;2022-07-30T17:20:45;1026.8;;;26.2;41.9
55858;BME280;41779;52.360;31.026;2022-07-30T17:25:45;1026.8;;;26.2;41.6
55858;BME280;41779;52.360;31.026;2022-07-30T17:30:45;1026.9;;;26.2;41.7
55858;BME280;41779;52.360;31.026;2022-07-30T17:35:45;1026.9;;;26.1;41.9
55858;BME280;41779;52.360;31.026;2022-07-30T17:40:46;1026.9;;;26.1;42.2
55858;BME280;41779;52.360;31.026;2022-07-30T17:45:45;1027;;;26;42.4
55858;BME280;41779;52.360;31.026;2022-07-30T17:50:45;1027;;;26;42.6
55858;BME280;41779;52.360;31.026;2022-07-30T17:55:45;1027;;;25.9;43.1
55858;BME280;41779;52.360;31.026;2022-07-30T18:00:45;1026.9;;;25.8;43.5
55858;BME280;41779;52.360;31.026;2022-07-30T18:05:45;1026.9;;;25.7;44
55858;BME280;41779;52.360;31.026;2022-07-30T18:10:45;1027;;;25.5;44.4
55858;BME280;41779;52.360;31.026;2022-07-30T18:15:45;1027;;;25.5;44.7
55858;BME280;41779;52.360;31.026;2022-07-30T18:20:45;1027;;;25.3;45.2
55858;BME280;41779;52.360;31.026;2022-07-30T18:25:46;1027;;;25.2;45.9
55858;BME280;41779;52.360;31.026;2022-07-30T18:30:45;1027;;;25.2;46.2
55858;BME280;41779;52.360;31.026;2022-07-30T18:35:45;1027;;;25.1;46.7
55858;BME280;41779;52.360;31.026;2022-07-30T18:40:45;1027;;;25;47.1
55858;BME280;41779;52.360;31.026;2022-07-30T18:45:45;1027.1;;;24.9;47.3
55858;BME280;41779;52.360;31.026;2022-07-30T18:50:46;1027.1;;;24.8;47.5
55858;BME280;41779;52.360;31.026;2022-07-30T18:55:45;1027.1;;;24.7;47.8
55858;BME280;41779;52.360;31.026;2022-07-30T19:00:45;1027.2;;;24.6;48
55858;BME280;41779;52.360;31.026;2022-07-30T19:05:45;1027.2;;;24.5;48.2
55858;BME280;41779;52.360;31.026;2022-07-30T19:10:45;1027.3;;;24.5;48.7
55858;BME280;41779;52.360;31.026;2022-07-30T19:15:45;1027.3;;;24.4;49.2
55858;BME280;41779;52.360;31.026;2022-07-30T19:20:45;1027.3;;;24.3;49.5
55858;BME280;41779;52.360;31.026;2022-07-30T19:25:45;1027.4;;;24.2;49.8
55858;BME280;41779;52.360;31.026;2022-07-30T19:30:45;1027.4;;;24.1;50.3
55858;BME280;41779;52.360;31.026;2022-07-30T19:35:45;1027.4;;;24;50.4
55858;BME280;41779;52.360;31.026;2022-07-30T19:40:45;1027.4;;;23.8;50.6
55858;BME280;41779;52.360;31.026;2022-07-30T19:45:45;1027.4;;;23.8;50.6
55858;BME280;41779;52.360;31.026;2022-07-30T19:50:45;1027.4;;;23.6;50.9
55858;BME280;41779;52.360;31.026;2022-07-30T19:55:45;1027.4;;;23.6;51.1
55858;BME280;41779;52.360;31.026;2022-07-30T20:00:46;1027.3;;;23.6;51.2
55858;BME280;41779;52.360;31.026;2022-07-30T20:05:45;1027.3;;;23.6;51.1
55858;BME280;41779;52.360;31.026;2022-07-30T20:10:45;1027.2;;;23.7;51.1
55858;BME280;41779;52.360;31.026;2022-07-30T20:15:45;1027.2;;;23.7;50.9
55858;BME280;41779;52.360;31.026;2022-07-30T20:20:45;1027.2;;;23.7;50.7
55858;BME280;41779;52.360;31.026;2022-07-30T20:25:45;1027.2;;;23.6;50.8
55858;BME280;41779;52.360;31.026;2022-07-30T20:30:45;1027.3;;;23.4;51.3
55858;BME280;41779;52.360;31.026;2022-07-30T20:35:45;1027.3;;;23.3;51.6
55858;BME280;41779;52.360;31.026;2022-07-30T20:40:45;1027.3;;;23.2;51.9
55858;BME280;41779;52.360;31.026;2022-07-30T20:45:45;1027.3;;;23.2;52.1
55858;BME280;41779;52.360;31.026;2022-07-30T20:50:45;1027.3;;;23.1;52.3
55858;BME280;41779;52.360;31.026;2022-07-30T20:55:45;1027.4;;;23;52.7
55858;BME280;41779;52.360;31.026;2022-07-30T21:00:45;1027.4;;;22.9;53.2
55858;BME280;41779;52.360;31.026;2022-07-30T21:05:45;1027.4;;;22.8;53.4
55858;BME280;41779;52.360;31.026;2022-07-30T21:10:45;1027.5;;;22.8;54.3
55858;BME280;41779;52.360;31.026;2022-07-30T21:15:45;1027.5;;;22.7;54.5
55858;BME280;41779;52.360;31.026;2022-07-30T21:20:45;1027.5;;;22.7;54
55858;BME280;41779;52.360;31.026;2022-07-30T21:25:45;1027.5;;;22.7;54.1
55858;BME280;41779;52.360;31.026;2022-07-30T21:30:46;1027.5;;;22.7;54
55858;BME280;41779;52.360;31.026;2022-07-30T21:35:45;1027.4;;;22.6;53.7
55858;BME280;41779;52.360;31.026;2022-07-30T21:40:45;1027.4;;;22.6;53.6
55858;BME280;41779;52.360;31.026;2022-07-30T21:45:45;1027.3;;;22.6;53.6
55858;BME280;41779;52.360;31.026;2022-07-30T21:50:45;1027.3;;;22.6;53.5
55858;BME280;41779;52.360;31.026;2022-07-30T21:55:45;1027.3;;;22.7;53.4
55858;BME280;41779;52.360;31.026;2022-07-30T22:01:03;1027.3;;;22.8;53.3
55858;BME280;41779;52.360;31.026;2022-07-30T22:05:45;1027.3;;;22.7;53.2
55858;BME280;41779;52.360;31.026;2022-07-30T22:10:46;1027.3;;;22.6;53.3
55858;BME280;41779;52.360;31.026;2022-07-30T22:15:46;1027.3;;;22.6;53.4
55858;BME280;41779;52.360;31.026;2022-07-30T22:20:46;1027.2;;;22.6;53.2
55858;BME280;41779;52.360;31.026;2022-07-30T22:25:46;1027.3;;;22.6;53.2
55858;BME280;41779;52.360;31.026;2022-07-30T22:30:45;1027.3;;;22.6;53.2
55858;BME280;41779;52.360;31.026;2022-07-30T22:35:46;1027.3;;;22.6;53.2
55858;BME280;41779;52.360;31.026;2022-07-30T22:40:46;1027.3;;;22.7;53
55858;BME280;41779;52.360;31.026;2022-07-30T22:45:45;1027.2;;;22.6;53.1
55858;BME280;41779;52.360;31.026;2022-07-30T22:50:45;1027.2;;;22.6;53.1
55858;BME280;41779;52.360;31.026;2022-07-30T22:55:46;1027.2;;;22.6;53.2
55858;BME280;41779;52.360;31.026;2022-07-30T23:00:45;1027.2;;;22.6;53.3
55858;BME280;41779;52.360;31.026;2022-07-30T23:05:45;1027.2;;;22.4;53.7
55858;BME280;41779;52.360;31.026;2022-07-30T23:10:45;1027.2;;;22.4;54
55858;BME280;41779;52.360;31.026;2022-07-30T23:15:46;1027.1;;;22.4;54.1
55858;BME280;41779;52.360;31.026;2022-07-30T23:20:45;1027.1;;;22.4;54.2
55858;BME280;41779;52.360;31.026;2022-07-30T23:25:45;1027.1;;;22.3;54.5
55858;BME280;41779;52.360;31.026;2022-07-30T23:30:45;1027.2;;;22.3;54.7
55858;BME280;41779;52.360;31.026;2022-07-30T23:35:46;1027.2;;;22.2;54.9
55858;BME280;41779;52.360;31.026;2022-07-30T23:40:45;1027.2;;;22.2;55
55858;BME280;41779;52.360;31.026;2022-07-30T23:45:45;1027.1;;;22.2;55.1
55858;BME280;41779;52.360;31.026;2022-07-30T23:50:45;1027.1;;;22.1;55.3
55858;BME280;41779;52.360;31.026;2022-07-30T23:55:46;1027.1;;;22.1;55.5
